Ingeniero Foster, Argentina
Current Conditions -  °F | °C
As of 7:00 PM on Saturday 25 Oct 2014 (Local Time) from SAOC Reporting Station
Clear Clear  
Wind Chill: 90°   Ceiling: Unl
Heat Index: 90°   Visibility: 6mi
Dew Point: 55°   Wind: 21mph
Humidity: 31%   Direction: 360°N
Pressure: 29.74"   Gusts: NA
Location:  35.69°S, 65.08°W
Report Text: SAOC 252200Z 36018KT CAVOK 32/13 Q1007
Loading
Personal Weather Stations






























Interactive Weather Map
Tropical Storm Tracking
New forecast layout! Learn more

10-Day Weather Forecast

Advertisements
Track Severe Weather on mobile